createdAt,value
2023-03-06T00:05:14.161Z,3.60
2023-03-06T00:11:15.648Z,3.58
2023-03-06T00:17:17.111Z,2.90
2023-03-06T00:23:18.799Z,3.00
2023-03-06T00:29:20.290Z,3.50
2023-03-06T00:35:21.949Z,3.63
2023-03-06T00:41:23.520Z,3.30
2023-03-06T00:47:25.088Z,3.80
2023-03-06T00:53:26.824Z,3.80
2023-03-06T00:59:28.295Z,3.63
2023-03-06T01:05:30.115Z,3.80
2023-03-06T01:11:31.673Z,4.10
2023-03-06T01:17:33.182Z,3.58
2023-03-06T01:23:34.706Z,3.70
2023-03-06T01:29:36.216Z,3.78
2023-03-06T01:35:38.575Z,4.17
2023-03-06T01:41:41.095Z,4.15
2023-03-06T01:47:42.599Z,4.20
2023-03-06T01:53:44.172Z,3.63
2023-03-06T01:59:47.847Z,3.60
2023-03-06T02:05:49.461Z,3.80
2023-03-06T02:11:51.055Z,3.63
2023-03-06T02:17:52.689Z,3.58
2023-03-06T02:24:12.901Z,3.73
2023-03-06T02:30:16.083Z,3.28
2023-03-06T02:36:17.720Z,3.97
2023-03-06T02:42:20.465Z,4.00
2023-03-06T02:48:22.140Z,3.92
2023-03-06T02:54:23.745Z,4.10
2023-03-06T03:00:25.696Z,3.53
2023-03-06T03:06:27.447Z,4.03
2023-03-06T03:12:29.229Z,4.25
2023-03-06T03:18:31.042Z,4.00
2023-03-06T03:24:33.035Z,3.93
2023-03-06T03:30:35.434Z,4.05
2023-03-06T03:36:37.426Z,4.03
2023-03-06T03:42:40.939Z,4.47
2023-03-06T03:48:42.593Z,5.00
2023-03-06T03:54:44.799Z,4.90
2023-03-06T04:00:47.132Z,5.10
2023-03-06T04:06:49.984Z,5.37
2023-03-06T04:12:53.405Z,5.05
2023-03-06T04:18:55.431Z,5.28
2023-03-06T04:24:57.357Z,5.13
2023-03-06T04:30:59.775Z,5.00
2023-03-06T04:37:01.270Z,5.37
2023-03-06T04:43:03.537Z,4.80
2023-03-06T04:49:05.040Z,5.07
2023-03-06T04:55:10.634Z,4.40
2023-03-06T05:01:12.206Z,5.05
2023-03-06T05:07:13.669Z,5.10
2023-03-06T05:13:15.122Z,4.85
2023-03-06T05:19:16.710Z,5.22
2023-03-06T05:25:18.505Z,5.33
2023-03-06T05:31:20.035Z,5.80
2023-03-06T05:37:22.968Z,6.97
2023-03-06T05:43:25.209Z,4.85
2023-03-06T05:49:30.942Z,5.47
2023-03-06T05:55:32.395Z,5.47
2023-03-06T06:01:33.861Z,4.97
2023-03-06T06:07:35.772Z,5.67
2023-03-06T06:13:38.154Z,4.75
2023-03-06T06:19:39.602Z,5.60
2023-03-06T06:25:41.073Z,6.00
2023-03-06T06:31:42.670Z,5.20
2023-03-06T06:37:44.110Z,5.27
2023-03-06T06:43:45.659Z,5.13
2023-03-06T06:49:53.817Z,5.03
2023-03-06T06:55:55.398Z,5.40
2023-03-06T07:01:56.847Z,4.80
2023-03-06T07:07:58.300Z,5.17
2023-03-06T07:13:59.840Z,5.03
2023-03-06T07:20:01.429Z,5.10
2023-03-06T07:26:03.244Z,5.57
2023-03-06T07:32:04.864Z,5.80
2023-03-06T07:38:06.362Z,5.87
2023-03-06T07:44:07.843Z,5.57
2023-03-06T07:50:09.703Z,6.50
2023-03-06T07:56:11.856Z,5.67
2023-03-06T08:02:13.389Z,5.90
2023-03-06T08:08:14.869Z,5.97
2023-03-06T08:14:16.392Z,6.18
2023-03-06T08:20:18.463Z,7.03
2023-03-06T08:26:21.143Z,6.33
2023-03-06T08:32:22.712Z,6.13
2023-03-06T08:38:24.317Z,5.90
2023-03-06T08:44:25.771Z,5.97
2023-03-06T08:50:27.249Z,6.20
2023-03-06T08:56:30.287Z,6.57
2023-03-06T09:02:32.100Z,6.40
2023-03-06T09:08:33.612Z,6.33
2023-03-06T09:14:35.055Z,6.75
2023-03-06T09:20:36.536Z,6.95
2023-03-06T09:26:46.296Z,6.90
2023-03-06T09:32:48.627Z,6.60
2023-03-06T09:38:50.246Z,6.77
2023-03-06T09:44:53.934Z,6.55
2023-03-06T09:51:01.044Z,6.60
2023-03-06T09:57:02.654Z,7.00
2023-03-06T10:03:22.946Z,6.85
2023-03-06T10:09:27.680Z,7.93
2023-03-06T10:15:33.292Z,8.40
2023-03-06T10:21:44.073Z,8.55
2023-03-06T10:27:50.169Z,10.00
2023-03-06T10:33:58.811Z,9.68
2023-03-06T10:40:12.972Z,10.73
2023-03-06T10:46:25.951Z,10.35
2023-03-06T10:52:34.983Z,10.48
2023-03-06T10:58:36.452Z,9.70
2023-03-06T11:04:39.492Z,10.32
2023-03-06T11:10:54.421Z,10.07
2023-03-06T11:16:55.867Z,9.85
2023-03-06T11:23:08.160Z,9.98
2023-03-06T11:29:40.544Z,10.57
2023-03-06T11:35:51.688Z,10.90
2023-03-06T11:42:05.418Z,10.13
2023-03-06T11:48:13.623Z,10.07
2023-03-06T11:54:15.151Z,10.13
2023-03-06T12:00:22.650Z,10.03
2023-03-06T12:06:36.342Z,9.60
2023-03-06T12:12:49.941Z,8.90
2023-03-06T12:19:04.678Z,7.40
2023-03-06T12:25:27.886Z,7.72
2023-03-06T12:31:41.108Z,8.80
2023-03-06T12:37:48.625Z,7.97
2023-03-06T12:43:50.146Z,6.50
2023-03-06T12:49:56.866Z,5.85
2023-03-06T12:55:59.601Z,5.68
2023-03-06T13:02:06.374Z,3.53
2023-03-06T13:08:16.997Z,4.85
2023-03-06T13:14:26.413Z,4.60
2023-03-06T13:20:30.068Z,5.15
2023-03-06T13:26:31.538Z,5.95
2023-03-06T13:32:34.422Z,5.30
2023-03-06T13:38:37.277Z,5.82
2023-03-06T13:44:42.659Z,6.97
2023-03-06T13:50:45.840Z,6.82
2023-03-06T13:56:57.092Z,6.97
2023-03-06T14:03:08.766Z,7.03
2023-03-06T14:09:27.889Z,6.38
2023-03-06T14:15:37.136Z,6.63
2023-03-06T14:21:49.632Z,6.38
2023-03-06T14:27:53.552Z,6.85
2023-03-06T14:33:58.447Z,6.47
2023-03-06T14:40:00.074Z,7.20
2023-03-06T14:46:06.471Z,7.57
2023-03-06T14:52:17.478Z,6.80
2023-03-06T14:58:21.531Z,7.07
2023-03-06T15:04:28.443Z,7.37
2023-03-06T15:10:32.179Z,7.97
2023-03-06T15:16:33.766Z,7.33
2023-03-06T15:22:40.013Z,6.60
2023-03-06T15:28:41.592Z,7.72
2023-03-06T15:34:43.112Z,8.20
2023-03-06T15:40:53.813Z,8.60
2023-03-06T15:47:07.689Z,7.60
2023-03-06T15:53:09.835Z,6.57
2023-03-06T15:59:22.035Z,5.80
2023-03-06T16:05:23.698Z,5.47
2023-03-06T16:11:32.499Z,5.53
2023-03-06T16:17:36.987Z,4.93
2023-03-06T16:23:39.133Z,4.97
2023-03-06T16:29:40.676Z,5.10
2023-03-06T16:35:44.569Z,5.47
2023-03-06T16:41:46.195Z,5.38
2023-03-06T16:47:48.178Z,5.10
2023-03-06T16:53:50.887Z,4.57
2023-03-06T16:59:52.447Z,5.95
2023-03-06T17:05:53.964Z,5.17
2023-03-06T17:11:55.432Z,5.60
2023-03-06T17:17:57.833Z,6.80
2023-03-06T17:24:02.315Z,6.78
2023-03-06T17:30:04.746Z,6.57
2023-03-06T17:36:06.442Z,6.40
2023-03-06T17:42:08.745Z,6.80
2023-03-06T17:48:10.205Z,5.10
2023-03-06T17:54:11.711Z,5.93
2023-03-06T18:00:13.360Z,5.57
2023-03-06T18:06:20.195Z,5.50
2023-03-06T18:12:21.732Z,5.32
2023-03-06T18:18:24.061Z,5.93
2023-03-06T18:24:25.601Z,5.70
2023-03-06T18:30:27.299Z,5.72
2023-03-06T18:36:30.107Z,5.47
2023-03-06T18:42:31.763Z,5.60
2023-03-06T18:48:33.644Z,5.50
2023-03-06T18:54:35.463Z,5.90
2023-03-06T19:00:37.441Z,6.50
2023-03-06T19:06:40.090Z,7.00
2023-03-06T19:12:41.953Z,6.38
2023-03-06T19:18:44.019Z,6.60
2023-03-06T19:24:46.955Z,6.57
2023-03-06T19:30:48.790Z,6.25
2023-03-06T19:36:51.129Z,6.27
2023-03-06T19:42:52.987Z,6.70
2023-03-06T19:48:56.249Z,6.27
2023-03-06T19:54:58.301Z,6.32
2023-03-06T20:01:29.894Z,5.97
2023-03-06T20:07:32.075Z,6.13
2023-03-06T20:13:34.107Z,5.90
2023-03-06T20:19:36.561Z,5.30
2023-03-06T20:25:38.602Z,6.57
2023-03-06T20:31:40.837Z,6.93
2023-03-06T20:37:42.570Z,6.67
2023-03-06T20:43:44.471Z,12.43
2023-03-06T20:49:46.112Z,15.43
2023-03-06T20:55:49.944Z,12.13
2023-03-06T21:01:51.689Z,7.47
2023-03-06T21:07:53.321Z,7.80
2023-03-06T21:13:54.919Z,8.25
2023-03-06T21:19:57.548Z,7.17
2023-03-06T21:25:59.272Z,6.65
2023-03-06T21:32:00.772Z,6.33
2023-03-06T21:38:02.230Z,6.43
2023-03-06T21:44:05.246Z,6.65
2023-03-06T21:50:08.495Z,6.93
2023-03-06T21:56:10.664Z,6.97
2023-03-06T22:02:12.171Z,7.30
2023-03-06T22:08:13.903Z,6.50
2023-03-06T22:14:15.399Z,6.55
2023-03-06T22:20:17.113Z,7.30
2023-03-06T22:26:18.704Z,7.75
2023-03-06T22:32:20.550Z,7.43
2023-03-06T22:38:22.093Z,6.40
2023-03-06T22:44:23.562Z,7.25
2023-03-06T22:50:24.958Z,7.23
2023-03-06T22:56:26.390Z,6.82
2023-03-06T23:02:32.055Z,7.73
2023-03-06T23:08:33.651Z,7.67
2023-03-06T23:14:35.103Z,7.53
2023-03-06T23:20:55.533Z,6.07
2023-03-06T23:27:15.633Z,7.45
2023-03-06T23:33:17.321Z,7.47
2023-03-06T23:39:18.868Z,7.50
2023-03-06T23:45:20.622Z,7.85
2023-03-06T23:51:22.533Z,8.77
2023-03-06T23:57:23.969Z,7.30
